createdAt,value
2016-05-14T00:00:10.622Z,978.71
2016-05-14T00:01:10.624Z,978.71
2016-05-14T00:02:10.627Z,978.67
2016-05-14T00:03:10.630Z,978.7
2016-05-14T00:04:10.632Z,978.7
2016-05-14T00:05:10.651Z,978.66
2016-05-14T00:06:10.637Z,978.66
2016-05-14T00:07:10.641Z,978.69
2016-05-14T00:08:10.643Z,978.72
2016-05-14T00:09:10.646Z,978.72
2016-05-14T00:10:10.648Z,978.79
2016-05-14T00:11:10.651Z,978.81
2016-05-14T00:12:10.654Z,978.79
2016-05-14T00:13:10.641Z,978.83
2016-05-14T00:14:10.644Z,978.83
2016-05-14T00:15:10.646Z,978.85
2016-05-14T00:16:10.649Z,978.79
2016-05-14T00:17:10.651Z,978.82
2016-05-14T00:18:10.655Z,978.8
2016-05-14T00:19:10.657Z,978.81
2016-05-14T00:20:10.660Z,978.81
2016-05-14T00:21:10.662Z,978.79
2016-05-14T00:22:10.665Z,978.79
2016-05-14T00:23:10.668Z,978.76
2016-05-14T00:24:10.671Z,978.73
2016-05-14T00:25:10.658Z,978.76
2016-05-14T00:26:10.660Z,978.76
2016-05-14T00:27:10.663Z,978.75
2016-05-14T00:28:10.666Z,978.73
2016-05-14T00:29:10.669Z,978.74
2016-05-14T00:30:10.686Z,978.74
2016-05-14T00:31:10.674Z,978.76
2016-05-14T00:32:10.692Z,978.74
2016-05-14T00:33:10.680Z,978.76
2016-05-14T00:34:10.682Z,978.74
2016-05-14T00:35:10.684Z,978.74
2016-05-14T00:36:10.672Z,978.73
2016-05-14T00:37:10.674Z,978.73
2016-05-14T00:38:10.677Z,978.71
2016-05-14T00:39:10.680Z,978.74
2016-05-14T00:40:10.682Z,978.73
2016-05-14T00:41:10.685Z,978.71
2016-05-14T00:42:10.688Z,978.68
2016-05-14T00:43:10.690Z,978.69
2016-05-14T00:44:10.693Z,978.68
2016-05-14T00:45:10.695Z,978.69
2016-05-14T00:46:10.683Z,978.69
2016-05-14T00:47:10.733Z,978.7
2016-05-14T00:48:10.735Z,978.68
2016-05-14T00:49:10.691Z,978.68
2016-05-14T00:50:10.693Z,978.66
2016-05-14T00:51:10.712Z,978.63
2016-05-14T00:52:10.698Z,978.63
2016-05-14T00:53:10.717Z,978.59
2016-05-14T00:54:10.704Z,978.66
2016-05-14T00:55:10.707Z,978.63
2016-05-14T00:56:10.710Z,978.6
2016-05-14T00:57:10.712Z,978.63
2016-05-14T00:58:10.714Z,978.64
2016-05-14T00:59:10.717Z,978.62
2016-05-14T01:00:10.705Z,978.62
2016-05-14T01:01:10.708Z,978.62
2016-05-14T01:02:10.711Z,978.64
2016-05-14T01:03:10.916Z,978.64
2016-05-14T01:04:10.716Z,978.66
2016-05-14T01:05:10.718Z,978.66
2016-05-14T01:06:10.721Z,978.65
2016-05-14T01:07:10.724Z,978.67
2016-05-14T01:08:10.727Z,978.69
2016-05-14T01:09:10.730Z,978.69
2016-05-14T01:10:10.716Z,978.65
2016-05-14T01:11:10.719Z,978.64
2016-05-14T01:12:10.737Z,978.64
2016-05-14T01:13:10.740Z,978.61
2016-05-14T01:14:10.727Z,978.61
2016-05-14T01:15:10.729Z,978.6
2016-05-14T01:16:10.733Z,978.63
2016-05-14T01:17:10.735Z,978.59
2016-05-14T01:18:10.753Z,978.61
2016-05-14T01:19:10.741Z,978.57
2016-05-14T01:20:10.743Z,978.61
2016-05-14T01:21:10.745Z,978.62
2016-05-14T01:22:10.732Z,978.6
2016-05-14T01:23:10.751Z,978.61
2016-05-14T01:24:10.738Z,978.64
2016-05-14T01:25:10.772Z,978.63
2016-05-14T01:26:10.790Z,978.63
2016-05-14T01:27:10.762Z,978.65
2016-05-14T01:28:10.764Z,978.69
2016-05-14T01:29:10.767Z,978.71
2016-05-14T01:30:10.754Z,978.72
2016-05-14T01:31:10.757Z,978.7
2016-05-14T01:32:10.760Z,978.72
2016-05-14T01:33:10.762Z,978.74
2016-05-14T01:34:10.765Z,978.76
2016-05-14T01:35:10.768Z,978.75
2016-05-14T01:36:10.786Z,978.78
2016-05-14T01:37:10.757Z,978.78
2016-05-14T01:38:10.760Z,978.78
2016-05-14T01:39:14.278Z,978.82
2016-05-14T01:40:10.781Z,978.83
2016-05-14T01:41:10.768Z,978.83
2016-05-14T01:42:10.787Z,978.8
2016-05-14T01:43:10.773Z,978.82
2016-05-14T01:44:10.776Z,978.85
2016-05-14T01:45:10.779Z,978.87
2016-05-14T01:46:10.782Z,978.83
2016-05-14T01:47:10.785Z,978.86
2016-05-14T01:48:10.787Z,978.89
2016-05-14T01:49:10.790Z,978.88
2016-05-14T01:50:10.776Z,978.87
2016-05-14T01:51:10.780Z,978.89
2016-05-14T01:52:10.798Z,978.87
2016-05-14T01:53:10.801Z,978.9
2016-05-14T01:54:10.787Z,978.87
2016-05-14T01:55:10.790Z,978.86
2016-05-14T01:56:10.793Z,978.9
2016-05-14T01:57:10.795Z,978.96
2016-05-14T01:58:10.799Z,978.94
2016-05-14T01:59:10.801Z,978.95
2016-05-14T02:00:10.804Z,978.95
2016-05-14T02:01:10.806Z,978.98
2016-05-14T02:02:10.809Z,978.98
2016-05-14T02:03:10.890Z,978.99
2016-05-14T02:04:10.799Z,978.97
2016-05-14T02:05:10.817Z,978.98
2016-05-14T02:06:10.819Z,978.98
2016-05-14T02:07:10.822Z,978.97
2016-05-14T02:08:10.810Z,978.98
2016-05-14T02:09:10.813Z,978.98
2016-05-14T02:10:10.816Z,979.01
2016-05-14T02:11:10.818Z,978.97
2016-05-14T02:12:10.821Z,979.05
2016-05-14T02:13:10.823Z,979.04
2016-05-14T02:14:10.826Z,979.06
2016-05-14T02:15:10.813Z,979.07
2016-05-14T02:16:10.816Z,979.07
2016-05-14T02:17:10.835Z,979.11
2016-05-14T02:18:10.821Z,979.07
2016-05-14T02:19:10.824Z,979.09
2016-05-14T02:20:10.826Z,979.12
2016-05-14T02:21:10.829Z,979.09
2016-05-14T02:22:10.832Z,979.11
2016-05-14T02:23:10.834Z,979.1
2016-05-14T02:24:10.837Z,979.08
2016-05-14T02:25:10.840Z,979.11
2016-05-14T02:26:10.843Z,979.13
2016-05-14T02:27:10.829Z,979.15
2016-05-14T02:28:10.831Z,979.19
2016-05-14T02:29:10.835Z,979.14
2016-05-14T02:30:10.838Z,979.17
2016-05-14T02:31:10.840Z,979.19
2016-05-14T02:32:10.843Z,979.19
2016-05-14T02:33:10.878Z,979.22
2016-05-14T02:34:10.848Z,979.2
2016-05-14T02:35:10.851Z,979.18
2016-05-14T02:36:10.853Z,979.22
2016-05-14T02:37:10.872Z,979.23
2016-05-14T02:38:10.859Z,979.19
2016-05-14T02:39:10.862Z,979.23
2016-05-14T02:40:10.865Z,979.22
2016-05-14T02:41:10.867Z,979.25
2016-05-14T02:42:10.854Z,979.18
2016-05-14T02:43:10.919Z,979.26
2016-05-14T02:44:10.860Z,979.22
2016-05-14T02:45:10.863Z,979.28
2016-05-14T02:46:10.865Z,979.26
2016-05-14T02:47:10.868Z,979.3
2016-05-14T02:48:10.855Z,979.31
2016-05-14T02:49:10.873Z,979.31
2016-05-14T02:50:10.860Z,979.32
2016-05-14T02:51:10.862Z,979.26
2016-05-14T02:52:10.865Z,979.32
2016-05-14T02:53:10.869Z,979.34
2016-05-14T02:54:10.870Z,979.34
2016-05-14T02:55:10.873Z,979.3
2016-05-14T02:56:10.876Z,979.28
2016-05-14T02:57:10.863Z,979.34
2016-05-14T02:58:10.882Z,979.35
2016-05-14T02:59:10.884Z,979.38
2016-05-14T03:00:10.887Z,979.44
2016-05-14T03:01:10.873Z,979.45
2016-05-14T03:02:10.892Z,979.43
2016-05-14T03:03:10.895Z,979.47
2016-05-14T03:04:10.882Z,979.47
2016-05-14T03:05:10.884Z,979.46
2016-05-14T03:06:10.887Z,979.47
2016-05-14T03:07:10.890Z,979.47
2016-05-14T03:08:10.892Z,979.51
2016-05-14T03:09:10.880Z,979.43
2016-05-14T03:10:10.883Z,979.44
2016-05-14T03:11:10.885Z,979.41
2016-05-14T03:12:10.903Z,979.45
2016-05-14T03:13:10.891Z,979.44
2016-05-14T03:14:10.894Z,979.45
2016-05-14T03:15:10.880Z,979.44
2016-05-14T03:16:10.899Z,979.46
2016-05-14T03:17:10.886Z,979.49
2016-05-14T03:18:10.904Z,979.47
2016-05-14T03:19:10.891Z,979.47
2016-05-14T03:20:10.893Z,979.47
2016-05-14T03:21:10.896Z,979.46
2016-05-14T03:22:10.899Z,979.41
2016-05-14T03:23:10.902Z,979.48
2016-05-14T03:24:10.905Z,979.48
2016-05-14T03:25:10.907Z,979.48
2016-05-14T03:26:10.895Z,979.48
2016-05-14T03:27:10.912Z,979.5
2016-05-14T03:28:10.915Z,979.49
2016-05-14T03:29:10.903Z,979.51
2016-05-14T03:30:10.905Z,979.49
2016-05-14T03:31:10.909Z,979.52
2016-05-14T03:32:10.911Z,979.53
2016-05-14T03:33:10.914Z,979.52
2016-05-14T03:34:10.916Z,979.51
2016-05-14T03:35:10.919Z,979.51
2016-05-14T03:36:10.906Z,979.5
2016-05-14T03:37:10.924Z,979.52
2016-05-14T03:38:10.911Z,979.53
2016-05-14T03:39:10.914Z,979.5
2016-05-14T03:40:10.917Z,979.51
2016-05-14T03:41:10.919Z,979.53
2016-05-14T03:42:10.922Z,979.53
2016-05-14T03:43:10.925Z,979.51
2016-05-14T03:44:10.927Z,979.51
2016-05-14T03:45:10.914Z,979.52
2016-05-14T03:46:10.932Z,979.52
2016-05-14T03:47:10.919Z,979.54
2016-05-14T03:48:10.922Z,979.52
2016-05-14T03:49:10.924Z,979.5
2016-05-14T03:50:10.927Z,979.59
2016-05-14T03:51:10.930Z,979.56
2016-05-14T03:52:10.933Z,979.57
2016-05-14T03:53:10.920Z,979.57
2016-05-14T03:54:10.923Z,979.57
2016-05-14T03:55:10.926Z,979.54
2016-05-14T03:56:10.928Z,979.54
2016-05-14T03:57:10.932Z,979.57
2016-05-14T03:58:10.933Z,979.6
2016-05-14T03:59:10.936Z,979.55
2016-05-14T04:00:10.940Z,979.57
2016-05-14T04:01:10.942Z,979.55
2016-05-14T04:02:10.929Z,979.53
2016-05-14T04:03:11.165Z,979.57
2016-05-14T04:04:10.934Z,979.58
2016-05-14T04:05:10.937Z,979.6
2016-05-14T04:06:10.939Z,979.63
2016-05-14T04:07:10.942Z,979.63
2016-05-14T04:08:10.945Z,979.66
2016-05-14T04:09:10.948Z,979.67
2016-05-14T04:10:10.935Z,979.65
2016-05-14T04:11:10.953Z,979.67
2016-05-14T04:12:10.956Z,979.71
2016-05-14T04:13:10.958Z,979.71
2016-05-14T04:14:10.945Z,979.71
2016-05-14T04:15:10.947Z,979.7
2016-05-14T04:16:10.950Z,979.73
2016-05-14T04:17:10.953Z,979.72
2016-05-14T04:18:11.019Z,979.7
2016-05-14T04:19:10.958Z,979.71
2016-05-14T04:20:10.952Z,979.75
2016-05-14T04:21:10.998Z,979.77
2016-05-14T04:22:11.043Z,979.79
2016-05-14T04:23:11.089Z,979.76
2016-05-14T04:24:11.149Z,979.76
2016-05-14T04:25:11.176Z,979.8
2016-05-14T04:26:11.195Z,979.79
2016-05-14T04:27:11.212Z,979.82
2016-05-14T04:28:11.231Z,979.83
2016-05-14T04:29:11.233Z,979.81
2016-05-14T04:30:11.265Z,979.83
2016-05-14T04:31:11.258Z,979.83
2016-05-14T04:32:11.266Z,979.84
2016-05-14T04:33:11.541Z,979.83
2016-05-14T04:34:11.283Z,979.85
2016-05-14T04:35:11.291Z,979.89
2016-05-14T04:36:11.296Z,979.88
2016-05-14T04:37:11.301Z,979.91
2016-05-14T04:38:11.305Z,979.9
2016-05-14T04:39:11.295Z,979.96
2016-05-14T04:40:11.299Z,979.96
2016-05-14T04:41:11.303Z,979.98
2016-05-14T04:42:11.321Z,979.98
2016-05-14T04:43:11.310Z,979.99
2016-05-14T04:44:11.313Z,980.02
2016-05-14T04:45:11.317Z,980.05
2016-05-14T04:46:11.319Z,980.04
2016-05-14T04:47:11.323Z,980.07
2016-05-14T04:48:11.325Z,980.09
2016-05-14T04:49:11.313Z,980.05
2016-05-14T04:50:11.316Z,980.1
2016-05-14T04:51:11.318Z,980.13
2016-05-14T04:52:11.321Z,980.13
2016-05-14T04:53:11.339Z,980.12
2016-05-14T04:54:11.326Z,980.12
2016-05-14T04:55:11.329Z,980.15
2016-05-14T04:56:11.332Z,980.15
2016-05-14T04:57:11.335Z,980.13
2016-05-14T04:58:11.337Z,980.16
2016-05-14T04:59:11.340Z,980.13
2016-05-14T05:00:11.326Z,980.15
2016-05-14T05:01:11.329Z,980.15
2016-05-14T05:02:11.348Z,980.19
2016-05-14T05:03:11.334Z,980.18
2016-05-14T05:04:11.338Z,980.22
2016-05-14T05:05:11.340Z,980.22
2016-05-14T05:06:11.343Z,980.19
2016-05-14T05:07:11.331Z,980.23
2016-05-14T05:08:11.348Z,980.23
2016-05-14T05:09:11.351Z,980.24
2016-05-14T05:10:11.353Z,980.24
2016-05-14T05:11:11.341Z,980.27
2016-05-14T05:12:11.375Z,980.26
2016-05-14T05:13:11.362Z,980.32
2016-05-14T05:14:11.365Z,980.31
2016-05-14T05:15:11.352Z,980.36
2016-05-14T05:16:11.370Z,980.33
2016-05-14T05:17:11.357Z,980.36
2016-05-14T05:18:11.375Z,980.41
2016-05-14T05:19:11.346Z,980.46
2016-05-14T05:20:11.350Z,980.46
2016-05-14T05:21:11.352Z,980.46
2016-05-14T05:22:11.371Z,980.49
2016-05-14T05:23:11.358Z,980.47
2016-05-14T05:24:11.360Z,980.49
2016-05-14T05:25:11.363Z,980.48
2016-05-14T05:26:11.365Z,980.48
2016-05-14T05:27:11.368Z,980.44
2016-05-14T05:28:11.371Z,980.47
2016-05-14T05:29:11.358Z,980.47
2016-05-14T05:30:11.360Z,980.5
2016-05-14T05:31:11.363Z,980.53
2016-05-14T05:32:11.366Z,980.46
2016-05-14T05:33:11.368Z,980.5
2016-05-14T05:34:11.387Z,980.54
2016-05-14T05:35:11.374Z,980.5
2016-05-14T05:36:11.376Z,980.54
2016-05-14T05:37:11.379Z,980.59
2016-05-14T05:38:11.382Z,980.58
2016-05-14T05:39:11.384Z,980.6
2016-05-14T05:40:11.387Z,980.62
2016-05-14T05:41:11.374Z,980.63
2016-05-14T05:42:11.377Z,980.58
2016-05-14T05:43:11.381Z,980.59
2016-05-14T05:44:11.383Z,980.62
2016-05-14T05:45:11.386Z,980.6
2016-05-14T05:46:11.388Z,980.62
2016-05-14T05:47:11.391Z,980.6
2016-05-14T05:48:11.378Z,980.65
2016-05-14T05:49:11.380Z,980.68
2016-05-14T05:50:11.399Z,980.61
2016-05-14T05:51:11.385Z,980.64
2016-05-14T05:52:11.405Z,980.64
2016-05-14T05:53:11.392Z,980.66
2016-05-14T05:54:11.394Z,980.63
2016-05-14T05:55:11.397Z,980.71
2016-05-14T05:56:11.399Z,980.72
2016-05-14T05:57:11.402Z,980.75
2016-05-14T05:58:11.405Z,980.76
2016-05-14T05:59:11.407Z,980.78
2016-05-14T06:00:11.395Z,980.75
2016-05-14T06:01:11.397Z,980.72
2016-05-14T06:02:11.401Z,980.75
2016-05-14T06:03:11.418Z,980.79
2016-05-14T06:04:11.671Z,980.77
2016-05-14T06:05:11.409Z,980.81
2016-05-14T06:06:11.411Z,980.79
2016-05-14T06:07:11.414Z,980.83
2016-05-14T06:08:11.401Z,980.81
2016-05-14T06:09:11.419Z,980.79
2016-05-14T06:10:11.406Z,980.86
2016-05-14T06:11:11.408Z,980.8
2016-05-14T06:12:11.411Z,980.77
2016-05-14T06:13:11.414Z,980.83
2016-05-14T06:14:11.417Z,980.81
2016-05-14T06:15:11.420Z,980.87
2016-05-14T06:16:11.422Z,980.9
2016-05-14T06:17:11.425Z,980.91
2016-05-14T06:18:11.427Z,980.9
2016-05-14T06:19:11.430Z,980.88
2016-05-14T06:20:11.416Z,980.88
2016-05-14T06:21:11.435Z,980.91
2016-05-14T06:22:11.438Z,981
2016-05-14T06:23:11.425Z,980.95
2016-05-14T06:24:11.428Z,980.95
2016-05-14T06:25:11.430Z,980.96
2016-05-14T06:26:11.433Z,980.93
2016-05-14T06:27:11.435Z,980.95
2016-05-14T06:28:11.438Z,980.97
2016-05-14T06:29:11.441Z,980.95
2016-05-14T06:30:11.443Z,981.06
2016-05-14T06:31:11.446Z,981.08
2016-05-14T06:32:11.449Z,981.04
2016-05-14T06:33:11.452Z,981.05
2016-05-14T06:34:11.471Z,981.19
2016-05-14T06:35:11.457Z,981.17
2016-05-14T06:36:11.460Z,981.15
2016-05-14T06:37:11.447Z,981.22
2016-05-14T06:38:11.465Z,981.09
2016-05-14T06:39:11.453Z,981.2
2016-05-14T06:40:11.455Z,981.2
2016-05-14T06:41:11.473Z,981.24
2016-05-14T06:42:11.460Z,981.18
2016-05-14T06:43:11.478Z,981.23
2016-05-14T06:44:11.467Z,981.27
2016-05-14T06:45:11.469Z,981.24
2016-05-14T06:46:11.472Z,981.27
2016-05-14T06:47:11.474Z,981.31
2016-05-14T06:48:11.477Z,981.25
2016-05-14T06:49:11.480Z,981.28
2016-05-14T06:50:11.466Z,981.24
2016-05-14T06:51:11.469Z,981.31
2016-05-14T06:52:11.487Z,981.34
2016-05-14T06:53:11.506Z,981.33
2016-05-14T06:54:11.478Z,981.35
2016-05-14T06:55:11.480Z,981.4
2016-05-14T06:56:11.514Z,981.38
2016-05-14T06:57:11.485Z,981.39
2016-05-14T06:58:11.488Z,981.42
2016-05-14T06:59:11.491Z,981.45
2016-05-14T07:00:11.493Z,981.45
2016-05-14T07:01:11.496Z,981.51
2016-05-14T07:02:11.498Z,981.45
2016-05-14T07:03:11.501Z,981.48
2016-05-14T07:04:11.504Z,981.48
2016-05-14T07:05:11.506Z,981.54
2016-05-14T07:06:11.510Z,981.53
2016-05-14T07:07:11.512Z,981.55
2016-05-14T07:08:11.515Z,981.56
2016-05-14T07:09:11.518Z,981.55
2016-05-14T07:10:11.520Z,981.54
2016-05-14T07:11:11.523Z,981.58
2016-05-14T07:12:11.525Z,981.6
2016-05-14T07:13:11.512Z,981.58
2016-05-14T07:14:11.531Z,981.64
2016-05-14T07:15:11.534Z,981.67
2016-05-14T07:16:11.537Z,981.7
2016-05-14T07:17:11.539Z,981.7
2016-05-14T07:18:11.526Z,981.71
2016-05-14T07:19:11.529Z,981.65
2016-05-14T07:20:11.531Z,981.68
2016-05-14T07:21:11.534Z,981.64
2016-05-14T07:22:11.536Z,981.71
2016-05-14T07:23:11.539Z,981.73
2016-05-14T07:24:11.558Z,981.69
2016-05-14T07:25:11.545Z,981.74
2016-05-14T07:26:11.548Z,981.71
2016-05-14T07:27:11.549Z,981.67
2016-05-14T07:28:11.553Z,981.71
2016-05-14T07:29:11.556Z,981.73
2016-05-14T07:30:11.558Z,981.79
2016-05-14T07:31:11.561Z,981.84
2016-05-14T07:32:11.563Z,981.83
2016-05-14T07:33:11.566Z,981.82
2016-05-14T07:34:11.569Z,981.88
2016-05-14T07:35:11.571Z,981.85
2016-05-14T07:36:11.574Z,981.86
2016-05-14T07:37:11.577Z,981.86
2016-05-14T07:38:11.580Z,981.88
2016-05-14T07:39:11.583Z,981.86
2016-05-14T07:40:11.585Z,981.89
2016-05-14T07:41:11.573Z,981.86
2016-05-14T07:42:11.575Z,981.86
2016-05-14T07:43:11.577Z,981.89
2016-05-14T07:44:11.596Z,981.96
2016-05-14T07:45:11.598Z,981.98
2016-05-14T07:46:11.586Z,982
2016-05-14T07:47:11.589Z,981.93
2016-05-14T07:48:12.107Z,981.9
2016-05-14T07:49:11.610Z,981.9
2016-05-14T07:50:11.597Z,981.94
2016-05-14T07:51:11.600Z,981.89
2016-05-14T07:52:11.602Z,981.91
2016-05-14T07:53:11.605Z,981.95
2016-05-14T07:54:11.608Z,981.99
2016-05-14T07:55:11.610Z,981.98
2016-05-14T07:56:11.613Z,982.01
2016-05-14T07:57:11.616Z,981.98
2016-05-14T07:58:11.618Z,982.05
2016-05-14T07:59:11.621Z,982.06
2016-05-14T08:00:11.608Z,982.04
2016-05-14T08:01:11.627Z,982.06
2016-05-14T08:02:11.629Z,982.08
2016-05-14T08:03:11.632Z,982.1
2016-05-14T08:04:11.635Z,982.11
2016-05-14T08:05:11.637Z,982.2
2016-05-14T08:06:11.624Z,982.24
2016-05-14T08:07:11.626Z,982.21
2016-05-14T08:08:11.645Z,982.2
2016-05-14T08:09:11.632Z,982.21
2016-05-14T08:10:11.635Z,982.19
2016-05-14T08:11:11.638Z,982.21
2016-05-14T08:12:11.640Z,982.22
2016-05-14T08:13:11.642Z,982.18
2016-05-14T08:14:11.645Z,982.24
2016-05-14T08:15:11.648Z,982.22
2016-05-14T08:16:11.651Z,982.24
2016-05-14T08:17:11.638Z,982.3
2016-05-14T08:18:11.891Z,982.37
2016-05-14T08:19:11.659Z,982.4
2016-05-14T08:20:11.646Z,982.44
2016-05-14T08:21:11.649Z,982.44
2016-05-14T08:22:11.652Z,982.43
2016-05-14T08:23:11.655Z,982.41
2016-05-14T08:24:11.657Z,982.46
2016-05-14T08:25:11.660Z,982.47
2016-05-14T08:26:11.663Z,982.49
2016-05-14T08:27:11.665Z,982.47
2016-05-14T08:28:11.683Z,982.47
2016-05-14T08:29:11.670Z,982.52
2016-05-14T08:30:11.673Z,982.54
2016-05-14T08:31:11.676Z,982.56
2016-05-14T08:32:11.679Z,982.53
2016-05-14T08:33:11.682Z,982.65
2016-05-14T08:34:11.700Z,982.62
2016-05-14T08:35:11.687Z,982.62
2016-05-14T08:36:11.705Z,982.65
2016-05-14T08:37:11.692Z,982.61
2016-05-14T08:38:11.695Z,982.6
2016-05-14T08:39:11.698Z,982.53
2016-05-14T08:40:11.715Z,982.51
2016-05-14T08:41:11.734Z,982.58
2016-05-14T08:42:11.706Z,982.61
2016-05-14T08:43:11.723Z,982.65
2016-05-14T08:44:11.726Z,982.75
2016-05-14T08:45:11.729Z,982.77
2016-05-14T08:46:11.717Z,982.76
2016-05-14T08:47:11.734Z,982.79
2016-05-14T08:48:11.737Z,982.8
2016-05-14T08:49:11.756Z,982.89
2016-05-14T08:50:11.727Z,982.9
2016-05-14T08:51:11.745Z,982.83
2016-05-14T08:52:11.732Z,982.89
2016-05-14T08:53:11.750Z,982.92
2016-05-14T08:54:11.738Z,983
2016-05-14T08:55:11.756Z,983.08
2016-05-14T08:56:11.758Z,983.1
2016-05-14T08:57:11.746Z,983.09
2016-05-14T08:58:11.764Z,983.11
2016-05-14T08:59:11.752Z,983.19
2016-05-14T09:00:11.754Z,983.12
2016-05-14T09:01:11.757Z,983.16
2016-05-14T09:02:11.759Z,983.17
2016-05-14T09:03:11.762Z,983.19
2016-05-14T09:04:11.780Z,983.1
2016-05-14T09:05:11.767Z,983.19
2016-05-14T09:06:11.770Z,983.09
2016-05-14T09:07:11.772Z,983.1
2016-05-14T09:08:11.776Z,983.11
2016-05-14T09:09:11.779Z,983.12
2016-05-14T09:10:11.781Z,983.1
2016-05-14T09:11:11.784Z,983.12
2016-05-14T09:12:11.801Z,983.09
2016-05-14T09:13:11.789Z,983.13
2016-05-14T09:14:11.792Z,983.15
2016-05-14T09:15:11.794Z,983.16
2016-05-14T09:16:11.797Z,983.25
2016-05-14T09:17:11.799Z,983.25
2016-05-14T09:18:11.817Z,983.22
2016-05-14T09:19:11.806Z,983.29
2016-05-14T09:20:11.807Z,983.36
2016-05-14T09:21:11.811Z,983.28
2016-05-14T09:22:11.813Z,983.35
2016-05-14T09:23:11.816Z,983.4
2016-05-14T09:24:11.819Z,983.45
2016-05-14T09:25:11.821Z,983.53
2016-05-14T09:26:11.839Z,983.53
2016-05-14T09:27:11.826Z,983.55
2016-05-14T09:28:11.829Z,983.55
2016-05-14T09:29:11.832Z,983.59
2016-05-14T09:30:11.834Z,983.68
2016-05-14T09:31:11.838Z,983.67
2016-05-14T09:32:11.840Z,983.66
2016-05-14T09:33:11.843Z,983.65
2016-05-14T09:34:11.971Z,983.68
2016-05-14T09:35:11.832Z,983.68
2016-05-14T09:36:11.835Z,983.68
2016-05-14T09:37:11.837Z,983.73
2016-05-14T09:38:11.840Z,983.67
2016-05-14T09:39:11.843Z,983.67
2016-05-14T09:40:11.845Z,983.65
2016-05-14T09:41:11.848Z,983.79
2016-05-14T09:42:11.850Z,983.78
2016-05-14T09:43:11.853Z,983.81
2016-05-14T09:44:11.873Z,983.81
2016-05-14T09:45:11.859Z,983.78
2016-05-14T09:46:11.862Z,983.84
2016-05-14T09:47:11.864Z,983.89
2016-05-14T09:48:12.195Z,983.82
2016-05-14T09:49:11.901Z,983.89
2016-05-14T09:50:11.856Z,983.96
2016-05-14T09:51:11.875Z,984.02
2016-05-14T09:52:11.862Z,983.98
2016-05-14T09:53:11.880Z,984.02
2016-05-14T09:54:11.899Z,983.97
2016-05-14T09:55:11.886Z,984.02
2016-05-14T09:56:11.889Z,984.01
2016-05-14T09:57:11.891Z,984.1
2016-05-14T09:58:11.878Z,984.13
2016-05-14T09:59:11.881Z,984.11
2016-05-14T10:00:11.899Z,984.1
2016-05-14T10:01:11.902Z,984.06
2016-05-14T10:02:11.905Z,984.15
2016-05-14T10:03:11.907Z,984.15
2016-05-14T10:04:11.926Z,984.2
2016-05-14T10:05:11.897Z,984.29
2016-05-14T10:06:11.915Z,984.17
2016-05-14T10:07:11.918Z,984.27
2016-05-14T10:08:11.921Z,984.28
2016-05-14T10:09:11.940Z,984.26
2016-05-14T10:10:11.927Z,984.31
2016-05-14T10:11:11.912Z,984.3
2016-05-14T10:12:11.916Z,984.29
2016-05-14T10:13:11.935Z,984.32
2016-05-14T10:14:11.937Z,984.31
2016-05-14T10:15:11.924Z,984.22
2016-05-14T10:16:11.942Z,984.11
2016-05-14T10:17:11.929Z,984.07
2016-05-14T10:18:12.026Z,983.97
2016-05-14T10:19:11.950Z,984.01
2016-05-14T10:20:11.953Z,984.02
2016-05-14T10:21:11.971Z,984.01
2016-05-14T10:22:11.958Z,984.05
2016-05-14T10:23:11.962Z,984.02
2016-05-14T10:24:11.964Z,984.13
2016-05-14T10:25:11.967Z,984.1
2016-05-14T10:26:11.969Z,984.2
2016-05-14T10:27:11.972Z,984.27
2016-05-14T10:28:11.991Z,984.33
2016-05-14T10:29:11.977Z,984.37
2016-05-14T10:30:11.980Z,984.29
2016-05-14T10:31:11.983Z,984.29
2016-05-14T10:32:12.001Z,984.28
2016-05-14T10:33:12.004Z,984.2
2016-05-14T10:34:11.991Z,984.23
2016-05-14T10:35:11.993Z,984.22
2016-05-14T10:36:11.996Z,984.25
2016-05-14T10:37:11.999Z,984.24
2016-05-14T10:38:12.002Z,984.24
2016-05-14T10:39:12.005Z,984.3
2016-05-14T10:40:12.007Z,984.37
2016-05-14T10:41:12.010Z,984.39
2016-05-14T10:42:12.013Z,984.36
2016-05-14T10:43:12.015Z,984.31
2016-05-14T10:44:12.018Z,984.34
2016-05-14T10:45:12.004Z,984.35
2016-05-14T10:46:12.007Z,984.26
2016-05-14T10:47:12.026Z,984.3
2016-05-14T10:48:12.122Z,984.28
2016-05-14T10:49:12.031Z,984.28
2016-05-14T10:50:12.033Z,984.28
2016-05-14T10:51:12.020Z,984.24
2016-05-14T10:52:12.040Z,984.24
2016-05-14T10:53:12.026Z,984.29
2016-05-14T10:54:12.044Z,984.28
2016-05-14T10:55:12.031Z,984.36
2016-05-14T10:56:12.034Z,984.4
2016-05-14T10:57:12.053Z,984.3
2016-05-14T10:58:12.039Z,984.37
2016-05-14T10:59:12.042Z,984.36
2016-05-14T11:00:12.045Z,984.32
2016-05-14T11:01:12.048Z,984.41
2016-05-14T11:02:12.050Z,984.48
2016-05-14T11:03:12.053Z,984.46
2016-05-14T11:04:12.383Z,984.46
2016-05-14T11:05:12.058Z,984.5
2016-05-14T11:06:12.077Z,984.37
2016-05-14T11:07:12.063Z,984.42
2016-05-14T11:08:12.083Z,984.37
2016-05-14T11:09:12.068Z,984.38
2016-05-14T11:10:12.071Z,984.37
2016-05-14T11:11:12.075Z,984.43
2016-05-14T11:12:12.062Z,984.43
2016-05-14T11:13:12.065Z,984.4
2016-05-14T11:14:12.067Z,984.42
2016-05-14T11:15:12.070Z,984.43
2016-05-14T11:16:12.073Z,984.46
2016-05-14T11:17:12.091Z,984.42
2016-05-14T11:18:12.078Z,984.45
2016-05-14T11:19:12.362Z,984.45
2016-05-14T11:20:12.084Z,984.45
2016-05-14T11:21:12.086Z,984.38
2016-05-14T11:22:12.104Z,984.41
2016-05-14T11:23:12.091Z,984.45
2016-05-14T11:24:12.094Z,984.46
2016-05-14T11:25:12.081Z,984.47
2016-05-14T11:26:12.100Z,984.46
2016-05-14T11:27:12.103Z,984.41
2016-05-14T11:28:12.105Z,984.43
2016-05-14T11:29:12.091Z,984.45
2016-05-14T11:30:12.094Z,984.41
2016-05-14T11:31:12.097Z,984.43
2016-05-14T11:32:12.100Z,984.41
2016-05-14T11:33:12.102Z,984.45
2016-05-14T11:34:12.168Z,984.4
2016-05-14T11:35:12.108Z,984.42
2016-05-14T11:36:12.127Z,984.44
2016-05-14T11:37:12.113Z,984.45
2016-05-14T11:38:12.116Z,984.41
2016-05-14T11:39:12.119Z,984.37
2016-05-14T11:40:12.121Z,984.41
2016-05-14T11:41:12.155Z,984.42
2016-05-14T11:42:12.126Z,984.48
2016-05-14T11:43:12.113Z,984.4
2016-05-14T11:44:12.132Z,984.38
2016-05-14T11:45:12.135Z,984.35
2016-05-14T11:46:12.137Z,984.43
2016-05-14T11:47:12.140Z,984.44
2016-05-14T11:48:12.143Z,984.45
2016-05-14T11:49:12.162Z,984.44
2016-05-14T11:50:12.148Z,984.43
2016-05-14T11:51:12.151Z,984.46
2016-05-14T11:52:12.154Z,984.42
2016-05-14T11:53:12.157Z,984.44
2016-05-14T11:54:12.159Z,984.39
2016-05-14T11:55:12.146Z,984.52
2016-05-14T11:56:12.164Z,984.45
2016-05-14T11:57:12.167Z,984.46
2016-05-14T11:58:12.154Z,984.42
2016-05-14T11:59:12.156Z,984.43
2016-05-14T12:00:12.175Z,984.37
2016-05-14T12:01:12.177Z,984.39
2016-05-14T12:02:12.180Z,984.44
2016-05-14T12:03:12.183Z,984.42
2016-05-14T12:04:12.170Z,984.46
2016-05-14T12:05:12.188Z,984.51
2016-05-14T12:06:12.207Z,984.47
2016-05-14T12:07:12.194Z,984.49
2016-05-14T12:08:12.196Z,984.46
2016-05-14T12:09:12.200Z,984.51
2016-05-14T12:10:12.185Z,984.51
2016-05-14T12:11:12.188Z,984.57
2016-05-14T12:12:12.191Z,984.53
2016-05-14T12:13:12.194Z,984.41
2016-05-14T12:14:12.197Z,984.36
2016-05-14T12:15:12.200Z,984.31
2016-05-14T12:16:12.203Z,984.35
2016-05-14T12:17:12.221Z,984.4
2016-05-14T12:18:12.208Z,984.48
2016-05-14T12:19:12.742Z,984.39
2016-05-14T12:20:12.229Z,984.47
2016-05-14T12:21:12.216Z,984.43
2016-05-14T12:22:12.234Z,984.48
2016-05-14T12:23:12.221Z,984.53
2016-05-14T12:24:12.224Z,984.52
2016-05-14T12:25:12.226Z,984.54
2016-05-14T12:26:12.229Z,984.53
2016-05-14T12:27:12.232Z,984.59
2016-05-14T12:28:12.234Z,984.64
2016-05-14T12:29:12.237Z,984.61
2016-05-14T12:30:12.256Z,984.67
2016-05-14T12:31:12.242Z,984.74